sensor_id;sensor_type;location;lat;lon;timestamp;P1;durP1;ratioP1;P2;durP2;ratioP2
77953;SDS011;67151;52.544;6.034;2023-04-24T00:00:10;2.7;;;0.8;;
77953;SDS011;67151;52.544;6.034;2023-04-24T00:00:24;2.9;;;1;;
77953;SDS011;67151;52.544;6.034;2023-04-24T00:00:40;2.2;;;1;;
77953;SDS011;67151;52.544;6.034;2023-04-24T00:00:54;2.5;;;0.9;;
77953;SDS011;67151;52.544;6.034;2023-04-24T00:01:09;2.5;;;0.9;;
77953;SDS011;67151;52.544;6.034;2023-04-24T00:01:24;2.2;;;0.9;;
77953;SDS011;67151;52.544;6.034;2023-04-24T00:01:39;2.1;;;0.9;;
77953;SDS011;67151;52.544;6.034;2023-04-24T00:01:54;2.1;;;0.9;;
77953;SDS011;67151;52.544;6.034;2023-04-24T00:02:09;1.9;;;0.9;;
77953;SDS011;67151;52.544;6.034;2023-04-24T00:02:24;2;;;0.8;;
77953;SDS011;67151;52.544;6.034;2023-04-24T00:02:39;2.6;;;0.8;;
77953;SDS011;67151;52.544;6.034;2023-04-24T00:02:54;2.3;;;0.9;;
77953;SDS011;67151;52.544;6.034;2023-04-24T00:03:09;2.3;;;1;;
77953;SDS011;67151;52.544;6.034;2023-04-24T00:03:24;2.2;;;1;;
77953;SDS011;67151;52.544;6.034;2023-04-24T00:03:39;2.3;;;1;;
77953;SDS011;67151;52.544;6.034;2023-04-24T00:03:54;2.2;;;0.9;;
77953;SDS011;67151;52.544;6.034;2023-04-24T00:04:09;1.2;;;0.7;;
77953;SDS011;67151;52.544;6.034;2023-04-24T00:04:24;2;;;0.8;;
77953;SDS011;67151;52.544;6.034;2023-04-24T00:04:39;2.5;;;0.8;;
77953;SDS011;67151;52.544;6.034;2023-04-24T00:04:54;1.9;;;0.8;;
77953;SDS011;67151;52.544;6.034;2023-04-24T00:05:09;2.4;;;0.8;;
77953;SDS011;67151;52.544;6.034;2023-04-24T00:05:24;2.3;;;0.8;;
77953;SDS011;67151;52.544;6.034;2023-04-24T00:05:39;1.7;;;0.8;;
77953;SDS011;67151;52.544;6.034;2023-04-24T00:05:54;1.5;;;0.7;;
77953;SDS011;67151;52.544;6.034;2023-04-24T00:06:09;1.9;;;0.9;;
77953;SDS011;67151;52.544;6.034;2023-04-24T00:06:24;2.1;;;0.9;;
77953;SDS011;67151;52.544;6.034;2023-04-24T00:06:39;1.9;;;0.8;;
77953;SDS011;67151;52.544;6.034;2023-04-24T00:06:54;1.8;;;0.8;;
77953;SDS011;67151;52.544;6.034;2023-04-24T00:07:09;2.4;;;0.9;;
77953;SDS011;67151;52.544;6.034;2023-04-24T00:07:24;2.4;;;0.9;;
77953;SDS011;67151;52.544;6.034;2023-04-24T00:07:40;1.6;;;0.8;;
77953;SDS011;67151;52.544;6.034;2023-04-24T00:07:54;1.6;;;0.8;;
77953;SDS011;67151;52.544;6.034;2023-04-24T00:08:09;1.8;;;0.8;;
77953;SDS011;67151;52.544;6.034;2023-04-24T00:08:24;2.2;;;0.8;;
77953;SDS011;67151;52.544;6.034;2023-04-24T00:08:39;2.2;;;0.8;;
77953;SDS011;67151;52.544;6.034;2023-04-24T00:08:54;1.5;;;0.8;;
77953;SDS011;67151;52.544;6.034;2023-04-24T00:09:09;1.6;;;0.8;;
77953;SDS011;67151;52.544;6.034;2023-04-24T00:09:24;1.5;;;0.8;;
77953;SDS011;67151;52.544;6.034;2023-04-24T00:09:39;1.6;;;0.9;;
77953;SDS011;67151;52.544;6.034;2023-04-24T00:09:54;1.8;;;0.9;;
77953;SDS011;67151;52.544;6.034;2023-04-24T00:10:09;2.4;;;0.9;;
77953;SDS011;67151;52.544;6.034;2023-04-24T00:10:24;2.4;;;0.8;;
77953;SDS011;67151;52.544;6.034;2023-04-24T00:10:39;2.1;;;0.8;;
77953;SDS011;67151;52.544;6.034;2023-04-24T00:10:54;2.2;;;0.9;;
77953;SDS011;67151;52.544;6.034;2023-04-24T00:11:09;2.1;;;1.1;;
77953;SDS011;67151;52.544;6.034;2023-04-24T00:11:24;2.1;;;0.9;;
77953;SDS011;67151;52.544;6.034;2023-04-24T00:11:39;1.9;;;0.8;;
77953;SDS011;67151;52.544;6.034;2023-04-24T00:11:54;1.7;;;0.8;;
77953;SDS011;67151;52.544;6.034;2023-04-24T00:12:09;1.6;;;0.8;;
77953;SDS011;67151;52.544;6.034;2023-04-24T00:12:24;2.1;;;0.8;;
77953;SDS011;67151;52.544;6.034;2023-04-24T00:12:39;2;;;0.7;;
77953;SDS011;67151;52.544;6.034;2023-04-24T00:12:54;2;;;0.8;;
77953;SDS011;67151;52.544;6.034;2023-04-24T00:13:09;1.9;;;0.8;;
77953;SDS011;67151;52.544;6.034;2023-04-24T00:13:24;1.7;;;0.8;;
77953;SDS011;67151;52.544;6.034;2023-04-24T00:13:39;3.6;;;0.8;;
77953;SDS011;67151;52.544;6.034;2023-04-24T00:13:54;3.8;;;0.8;;
77953;SDS011;67151;52.544;6.034;2023-04-24T00:14:09;1.9;;;0.9;;
77953;SDS011;67151;52.544;6.034;2023-04-24T00:14:24;1.3;;;0.9;;
77953;SDS011;67151;52.544;6.034;2023-04-24T00:14:39;1.3;;;0.9;;
77953;SDS011;67151;52.544;6.034;2023-04-24T00:14:54;1.9;;;1;;
77953;SDS011;67151;52.544;6.034;2023-04-24T00:15:10;2.1;;;0.9;;
77953;SDS011;67151;52.544;6.034;2023-04-24T00:15:24;1.9;;;0.8;;
77953;SDS011;67151;52.544;6.034;2023-04-24T00:15:39;2.3;;;0.9;;
77953;SDS011;67151;52.544;6.034;2023-04-24T00:15:54;2.4;;;0.9;;
77953;SDS011;67151;52.544;6.034;2023-04-24T00:16:09;2.1;;;0.8;;
77953;SDS011;67151;52.544;6.034;2023-04-24T00:16:24;1.9;;;0.8;;
77953;SDS011;67151;52.544;6.034;2023-04-24T00:16:39;1.4;;;0.6;;
77953;SDS011;67151;52.544;6.034;2023-04-24T00:16:54;1.8;;;0.7;;
77953;SDS011;67151;52.544;6.034;2023-04-24T00:17:09;2.2;;;0.8;;
77953;SDS011;67151;52.544;6.034;2023-04-24T00:17:24;1.7;;;0.8;;
77953;SDS011;67151;52.544;6.034;2023-04-24T00:17:39;1.3;;;0.7;;
77953;SDS011;67151;52.544;6.034;2023-04-24T00:17:54;1.7;;;0.7;;
77953;SDS011;67151;52.544;6.034;2023-04-24T00:18:09;2.2;;;0.8;;
77953;SDS011;67151;52.544;6.034;2023-04-24T00:18:26;1.8;;;0.8;;
77953;SDS011;67151;52.544;6.034;2023-04-24T00:18:39;1.9;;;0.9;;
77953;SDS011;67151;52.544;6.034;2023-04-24T00:18:54;1.8;;;0.9;;
77953;SDS011;67151;52.544;6.034;2023-04-24T00:19:09;1.4;;;0.8;;
77953;SDS011;67151;52.544;6.034;2023-04-24T00:19:24;1.7;;;0.9;;
77953;SDS011;67151;52.544;6.034;2023-04-24T00:19:40;1.9;;;1;;
77953;SDS011;67151;52.544;6.034;2023-04-24T00:19:54;1.6;;;1;;
77953;SDS011;67151;52.544;6.034;2023-04-24T00:20:10;1.2;;;0.8;;
77953;SDS011;67151;52.544;6.034;2023-04-24T00:20:24;1.1;;;0.6;;
77953;SDS011;67151;52.544;6.034;2023-04-24T00:20:39;1.2;;;0.7;;
77953;SDS011;67151;52.544;6.034;2023-04-24T00:20:54;1.3;;;0.8;;
77953;SDS011;67151;52.544;6.034;2023-04-24T00:21:09;1.4;;;0.8;;
77953;SDS011;67151;52.544;6.034;2023-04-24T00:21:24;1.7;;;0.9;;
77953;SDS011;67151;52.544;6.034;2023-04-24T00:21:39;1.8;;;0.9;;
77953;SDS011;67151;52.544;6.034;2023-04-24T00:21:54;1.5;;;0.8;;
77953;SDS011;67151;52.544;6.034;2023-04-24T00:22:09;1.7;;;0.8;;
77953;SDS011;67151;52.544;6.034;2023-04-24T00:22:24;1.5;;;0.9;;
77953;SDS011;67151;52.544;6.034;2023-04-24T00:22:39;1.5;;;0.8;;
77953;SDS011;67151;52.544;6.034;2023-04-24T00:22:54;1.8;;;0.9;;
77953;SDS011;67151;52.544;6.034;2023-04-24T00:23:09;2.2;;;0.8;;
77953;SDS011;67151;52.544;6.034;2023-04-24T00:23:24;2;;;0.8;;
77953;SDS011;67151;52.544;6.034;2023-04-24T00:23:39;1.8;;;0.7;;
77953;SDS011;67151;52.544;6.034;2023-04-24T00:23:54;2;;;0.7;;
77953;SDS011;67151;52.544;6.034;2023-04-24T00:24:09;1.5;;;0.8;;
77953;SDS011;67151;52.544;6.034;2023-04-24T00:24:24;1.3;;;0.7;;
77953;SDS011;67151;52.544;6.034;2023-04-24T00:24:39;1.5;;;0.8;;
77953;SDS011;67151;52.544;6.034;2023-04-24T00:24:54;2.3;;;0.9;;
77953;SDS011;67151;52.544;6.034;2023-04-24T00:25:09;2.6;;;0.9;;
77953;SDS011;67151;52.544;6.034;2023-04-24T00:25:24;2.3;;;1;;
77953;SDS011;67151;52.544;6.034;2023-04-24T00:25:39;1.9;;;0.9;;
77953;SDS011;67151;52.544;6.034;2023-04-24T00:25:54;1.8;;;0.6;;
77953;SDS011;67151;52.544;6.034;2023-04-24T00:26:09;2.2;;;0.9;;
77953;SDS011;67151;52.544;6.034;2023-04-24T00:26:24;2;;;0.9;;
77953;SDS011;67151;52.544;6.034;2023-04-24T00:26:39;1.3;;;0.7;;
77953;SDS011;67151;52.544;6.034;2023-04-24T00:26:54;1.4;;;0.7;;
77953;SDS011;67151;52.544;6.034;2023-04-24T00:27:09;1.8;;;0.8;;
77953;SDS011;67151;52.544;6.034;2023-04-24T00:27:24;1.8;;;0.9;;
77953;SDS011;67151;52.544;6.034;2023-04-24T00:27:39;2.1;;;0.9;;
77953;SDS011;67151;52.544;6.034;2023-04-24T00:27:54;2.6;;;0.8;;
77953;SDS011;67151;52.544;6.034;2023-04-24T00:28:09;2.4;;;0.8;;
77953;SDS011;67151;52.544;6.034;2023-04-24T00:28:24;2.1;;;0.9;;
77953;SDS011;67151;52.544;6.034;2023-04-24T00:28:39;2;;;0.9;;
77953;SDS011;67151;52.544;6.034;2023-04-24T00:28:54;1.6;;;0.8;;
77953;SDS011;67151;52.544;6.034;2023-04-24T00:29:09;1.4;;;0.7;;
77953;SDS011;67151;52.544;6.034;2023-04-24T00:29:24;1.6;;;0.8;;
77953;SDS011;67151;52.544;6.034;2023-04-24T00:29:39;1.8;;;0.9;;
77953;SDS011;67151;52.544;6.034;2023-04-24T00:29:54;1.8;;;0.9;;
77953;SDS011;67151;52.544;6.034;2023-04-24T00:30:09;1.7;;;0.8;;
77953;SDS011;67151;52.544;6.034;2023-04-24T00:30:24;2.1;;;0.8;;
77953;SDS011;67151;52.544;6.034;2023-04-24T00:30:39;1.9;;;0.8;;
77953;SDS011;67151;52.544;6.034;2023-04-24T00:30:54;1.6;;;0.8;;
77953;SDS011;67151;52.544;6.034;2023-04-24T00:31:09;2.4;;;0.8;;
77953;SDS011;67151;52.544;6.034;2023-04-24T00:31:24;1.8;;;0.7;;
77953;SDS011;67151;52.544;6.034;2023-04-24T00:31:39;1.1;;;0.7;;
77953;SDS011;67151;52.544;6.034;2023-04-24T00:31:54;1.6;;;0.9;;
77953;SDS011;67151;52.544;6.034;2023-04-24T00:32:09;1.6;;;0.8;;
77953;SDS011;67151;52.544;6.034;2023-04-24T00:32:24;2.1;;;0.7;;
77953;SDS011;67151;52.544;6.034;2023-04-24T00:32:39;1.9;;;0.7;;
77953;SDS011;67151;52.544;6.034;2023-04-24T00:32:54;2;;;0.7;;
77953;SDS011;67151;52.544;6.034;2023-04-24T00:33:09;2.5;;;0.9;;
77953;SDS011;67151;52.544;6.034;2023-04-24T00:33:24;2.5;;;1;;
77953;SDS011;67151;52.544;6.034;2023-04-24T00:33:39;2.3;;;0.9;;
77953;SDS011;67151;52.544;6.034;2023-04-24T00:33:54;1.8;;;0.8;;
77953;SDS011;67151;52.544;6.034;2023-04-24T00:34:09;1.5;;;0.6;;
77953;SDS011;67151;52.544;6.034;2023-04-24T00:34:24;1.8;;;0.7;;
77953;SDS011;67151;52.544;6.034;2023-04-24T00:34:40;1.5;;;0.7;;
77953;SDS011;67151;52.544;6.034;2023-04-24T00:34:54;1.2;;;0.7;;
77953;SDS011;67151;52.544;6.034;2023-04-24T00:35:09;2.4;;;0.8;;
77953;SDS011;67151;52.544;6.034;2023-04-24T00:35:24;2.6;;;0.7;;
77953;SDS011;67151;52.544;6.034;2023-04-24T00:35:39;1.7;;;0.7;;
77953;SDS011;67151;52.544;6.034;2023-04-24T00:35:54;1.8;;;0.7;;
77953;SDS011;67151;52.544;6.034;2023-04-24T00:36:09;2.4;;;0.7;;
77953;SDS011;67151;52.544;6.034;2023-04-24T00:36:24;2;;;0.7;;
77953;SDS011;67151;52.544;6.034;2023-04-24T00:36:39;1.2;;;0.7;;
77953;SDS011;67151;52.544;6.034;2023-04-24T00:36:54;1.1;;;0.8;;
77953;SDS011;67151;52.544;6.034;2023-04-24T00:37:09;1;;;0.7;;
77953;SDS011;67151;52.544;6.034;2023-04-24T00:37:24;1.3;;;0.7;;
77953;SDS011;67151;52.544;6.034;2023-04-24T00:37:39;1.4;;;0.8;;
77953;SDS011;67151;52.544;6.034;2023-04-24T00:37:54;1.2;;;0.7;;
77953;SDS011;67151;52.544;6.034;2023-04-24T00:38:09;1.6;;;0.7;;
77953;SDS011;67151;52.544;6.034;2023-04-24T00:38:24;1.6;;;0.8;;
77953;SDS011;67151;52.544;6.034;2023-04-24T00:38:39;1.6;;;0.9;;
77953;SDS011;67151;52.544;6.034;2023-04-24T00:38:54;1.3;;;0.8;;
77953;SDS011;67151;52.544;6.034;2023-04-24T00:39:09;1.2;;;0.8;;
77953;SDS011;67151;52.544;6.034;2023-04-24T00:39:24;1.5;;;0.8;;
77953;SDS011;67151;52.544;6.034;2023-04-24T00:39:39;1.7;;;0.7;;
77953;SDS011;67151;52.544;6.034;2023-04-24T00:39:54;1.9;;;0.8;;
77953;SDS011;67151;52.544;6.034;2023-04-24T00:40:10;2.8;;;0.9;;
77953;SDS011;67151;52.544;6.034;2023-04-24T00:40:24;2.5;;;0.8;;
77953;SDS011;67151;52.544;6.034;2023-04-24T00:40:39;1.1;;;0.6;;
77953;SDS011;67151;52.544;6.034;2023-04-24T00:40:54;1.6;;;0.7;;
77953;SDS011;67151;52.544;6.034;2023-04-24T00:41:09;1.6;;;0.7;;
77953;SDS011;67151;52.544;6.034;2023-04-24T00:41:25;1.8;;;0.8;;
77953;SDS011;67151;52.544;6.034;2023-04-24T00:41:39;2.4;;;0.9;;
77953;SDS011;67151;52.544;6.034;2023-04-24T00:41:54;1.7;;;0.8;;
77953;SDS011;67151;52.544;6.034;2023-04-24T00:42:09;1.6;;;0.8;;
77953;SDS011;67151;52.544;6.034;2023-04-24T00:42:24;2.1;;;0.9;;
77953;SDS011;67151;52.544;6.034;2023-04-24T00:42:39;1.9;;;0.8;;
77953;SDS011;67151;52.544;6.034;2023-04-24T00:42:54;1.9;;;0.6;;
77953;SDS011;67151;52.544;6.034;2023-04-24T00:43:09;1.8;;;0.6;;
77953;SDS011;67151;52.544;6.034;2023-04-24T00:43:24;1;;;0.6;;
77953;SDS011;67151;52.544;6.034;2023-04-24T00:43:39;1.1;;;0.8;;
77953;SDS011;67151;52.544;6.034;2023-04-24T00:43:54;1.2;;;0.7;;
77953;SDS011;67151;52.544;6.034;2023-04-24T00:44:09;0.9;;;0.6;;
77953;SDS011;67151;52.544;6.034;2023-04-24T00:44:24;1;;;0.7;;
77953;SDS011;67151;52.544;6.034;2023-04-24T00:44:39;1.3;;;0.8;;
77953;SDS011;67151;52.544;6.034;2023-04-24T00:44:54;1.5;;;0.8;;
77953;SDS011;67151;52.544;6.034;2023-04-24T00:45:09;1.7;;;0.8;;
77953;SDS011;67151;52.544;6.034;2023-04-24T00:45:24;1.8;;;0.7;;
77953;SDS011;67151;52.544;6.034;2023-04-24T00:45:39;1.5;;;0.8;;
77953;SDS011;67151;52.544;6.034;2023-04-24T00:45:54;1.3;;;0.8;;
77953;SDS011;67151;52.544;6.034;2023-04-24T00:46:09;1.3;;;0.8;;
77953;SDS011;67151;52.544;6.034;2023-04-24T00:46:24;1;;;0.7;;
77953;SDS011;67151;52.544;6.034;2023-04-24T00:46:39;1.2;;;0.6;;
77953;SDS011;67151;52.544;6.034;2023-04-24T00:46:54;2.1;;;0.7;;
77953;SDS011;67151;52.544;6.034;2023-04-24T00:47:09;1.7;;;0.7;;
77953;SDS011;67151;52.544;6.034;2023-04-24T00:47:24;1.1;;;0.7;;
77953;SDS011;67151;52.544;6.034;2023-04-24T00:47:40;1.8;;;0.8;;
77953;SDS011;67151;52.544;6.034;2023-04-24T00:47:54;1.8;;;0.8;;
77953;SDS011;67151;52.544;6.034;2023-04-24T00:48:09;1.1;;;0.6;;
77953;SDS011;67151;52.544;6.034;2023-04-24T00:48:24;1.4;;;0.7;;
77953;SDS011;67151;52.544;6.034;2023-04-24T00:48:39;1.4;;;0.8;;
77953;SDS011;67151;52.544;6.034;2023-04-24T00:48:54;1.5;;;0.7;;
77953;SDS011;67151;52.544;6.034;2023-04-24T00:49:09;1.8;;;0.8;;
77953;SDS011;67151;52.544;6.034;2023-04-24T00:49:24;1.8;;;0.8;;
77953;SDS011;67151;52.544;6.034;2023-04-24T00:49:39;2;;;0.8;;
77953;SDS011;67151;52.544;6.034;2023-04-24T00:49:54;2;;;0.7;;
77953;SDS011;67151;52.544;6.034;2023-04-24T00:50:09;1.6;;;0.7;;
77953;SDS011;67151;52.544;6.034;2023-04-24T00:50:24;1.6;;;0.7;;
77953;SDS011;67151;52.544;6.034;2023-04-24T00:50:39;2;;;0.8;;
77953;SDS011;67151;52.544;6.034;2023-04-24T00:50:54;1.6;;;0.9;;
77953;SDS011;67151;52.544;6.034;2023-04-24T00:51:09;1.8;;;0.8;;
77953;SDS011;67151;52.544;6.034;2023-04-24T00:51:24;1.9;;;0.8;;
77953;SDS011;67151;52.544;6.034;2023-04-24T00:51:39;1.1;;;0.7;;
77953;SDS011;67151;52.544;6.034;2023-04-24T00:51:54;1.5;;;0.8;;
77953;SDS011;67151;52.544;6.034;2023-04-24T00:52:09;1.5;;;0.8;;
77953;SDS011;67151;52.544;6.034;2023-04-24T00:52:24;1.2;;;0.7;;
77953;SDS011;67151;52.544;6.034;2023-04-24T00:52:39;1.6;;;0.7;;
77953;SDS011;67151;52.544;6.034;2023-04-24T00:52:54;1.6;;;0.7;;
77953;SDS011;67151;52.544;6.034;2023-04-24T00:53:09;1.5;;;0.7;;
77953;SDS011;67151;52.544;6.034;2023-04-24T00:53:24;1.9;;;0.8;;
77953;SDS011;67151;52.544;6.034;2023-04-24T00:53:39;1.8;;;0.7;;
77953;SDS011;67151;52.544;6.034;2023-04-24T00:53:54;1.7;;;0.7;;
77953;SDS011;67151;52.544;6.034;2023-04-24T00:54:09;1.7;;;0.8;;
77953;SDS011;67151;52.544;6.034;2023-04-24T00:54:24;1.3;;;0.8;;
77953;SDS011;67151;52.544;6.034;2023-04-24T00:54:39;1.3;;;0.7;;
77953;SDS011;67151;52.544;6.034;2023-04-24T00:54:54;1.4;;;0.7;;
77953;SDS011;67151;52.544;6.034;2023-04-24T00:55:09;1.6;;;0.7;;
77953;SDS011;67151;52.544;6.034;2023-04-24T00:55:24;1.6;;;0.7;;
77953;SDS011;67151;52.544;6.034;2023-04-24T00:55:39;1.3;;;0.6;;
77953;SDS011;67151;52.544;6.034;2023-04-24T00:55:54;1.5;;;0.7;;
77953;SDS011;67151;52.544;6.034;2023-04-24T00:56:09;1.5;;;0.7;;
77953;SDS011;67151;52.544;6.034;2023-04-24T00:56:24;1.5;;;0.6;;
77953;SDS011;67151;52.544;6.034;2023-04-24T00:56:39;1.5;;;0.6;;
77953;SDS011;67151;52.544;6.034;2023-04-24T00:56:54;1.8;;;0.7;;
77953;SDS011;67151;52.544;6.034;2023-04-24T00:57:09;1.9;;;0.7;;
77953;SDS011;67151;52.544;6.034;2023-04-24T00:57:24;1.5;;;0.8;;
77953;SDS011;67151;52.544;6.034;2023-04-24T00:57:39;1.6;;;0.7;;
77953;SDS011;67151;52.544;6.034;2023-04-24T00:57:54;1.4;;;0.7;;
77953;SDS011;67151;52.544;6.034;2023-04-24T00:58:09;1.3;;;0.6;;
77953;SDS011;67151;52.544;6.034;2023-04-24T00:58:24;1.9;;;0.7;;
77953;SDS011;67151;52.544;6.034;2023-04-24T00:58:39;1.6;;;0.7;;
77953;SDS011;67151;52.544;6.034;2023-04-24T00:58:54;1.6;;;0.8;;
77953;SDS011;67151;52.544;6.034;2023-04-24T00:59:09;1.7;;;0.8;;
77953;SDS011;67151;52.544;6.034;2023-04-24T00:59:24;2.3;;;0.9;;
77953;SDS011;67151;52.544;6.034;2023-04-24T00:59:39;2.5;;;0.9;;
77953;SDS011;67151;52.544;6.034;2023-04-24T00:59:54;1.8;;;0.7;;
77953;SDS011;67151;52.544;6.034;2023-04-24T01:00:09;1.6;;;0.8;;
77953;SDS011;67151;52.544;6.034;2023-04-24T01:00:24;1.3;;;0.7;;
77953;SDS011;67151;52.544;6.034;2023-04-24T01:00:39;1.2;;;0.7;;
77953;SDS011;67151;52.544;6.034;2023-04-24T01:00:54;1.1;;;0.7;;
77953;SDS011;67151;52.544;6.034;2023-04-24T01:01:09;1.8;;;0.7;;
77953;SDS011;67151;52.544;6.034;2023-04-24T01:01:24;2.1;;;0.7;;
77953;SDS011;67151;52.544;6.034;2023-04-24T01:01:39;1.4;;;0.6;;
77953;SDS011;67151;52.544;6.034;2023-04-24T01:01:54;1.1;;;0.6;;
77953;SDS011;67151;52.544;6.034;2023-04-24T01:02:09;1.1;;;0.6;;
77953;SDS011;67151;52.544;6.034;2023-04-24T01:02:24;1.6;;;0.6;;
77953;SDS011;67151;52.544;6.034;2023-04-24T01:02:40;1.5;;;0.6;;
77953;SDS011;67151;52.544;6.034;2023-04-24T01:02:54;1.5;;;0.6;;
77953;SDS011;67151;52.544;6.034;2023-04-24T01:03:09;1.5;;;0.6;;
77953;SDS011;67151;52.544;6.034;2023-04-24T01:03:26;1.6;;;0.7;;
77953;SDS011;67151;52.544;6.034;2023-04-24T01:03:39;1.7;;;0.6;;
77953;SDS011;67151;52.544;6.034;2023-04-24T01:03:54;1.9;;;0.8;;
77953;SDS011;67151;52.544;6.034;2023-04-24T01:04:09;2.1;;;0.8;;
77953;SDS011;67151;52.544;6.034;2023-04-24T01:04:24;1.3;;;0.7;;
77953;SDS011;67151;52.544;6.034;2023-04-24T01:04:39;1.1;;;0.7;;
77953;SDS011;67151;52.544;6.034;2023-04-24T01:04:54;1;;;0.7;;
77953;SDS011;67151;52.544;6.034;2023-04-24T01:05:10;1.3;;;0.6;;
77953;SDS011;67151;52.544;6.034;2023-04-24T01:05:24;1.6;;;0.7;;
77953;SDS011;67151;52.544;6.034;2023-04-24T01:05:39;1.2;;;0.7;;
77953;SDS011;67151;52.544;6.034;2023-04-24T01:05:54;0.8;;;0.6;;
77953;SDS011;67151;52.544;6.034;2023-04-24T01:06:09;1;;;0.6;;
77953;SDS011;67151;52.544;6.034;2023-04-24T01:06:25;1.4;;;0.7;;
77953;SDS011;67151;52.544;6.034;2023-04-24T01:06:39;1.6;;;0.6;;
77953;SDS011;67151;52.544;6.034;2023-04-24T01:06:54;1.4;;;0.6;;
77953;SDS011;67151;52.544;6.034;2023-04-24T01:07:09;1;;;0.6;;
77953;SDS011;67151;52.544;6.034;2023-04-24T01:07:24;1.4;;;0.7;;
77953;SDS011;67151;52.544;6.034;2023-04-24T01:07:40;1.4;;;0.8;;
77953;SDS011;67151;52.544;6.034;2023-04-24T01:07:54;0.9;;;0.6;;
77953;SDS011;67151;52.544;6.034;2023-04-24T01:08:09;0.9;;;0.6;;
77953;SDS011;67151;52.544;6.034;2023-04-24T01:08:24;1;;;0.6;;
77953;SDS011;67151;52.544;6.034;2023-04-24T01:08:39;1.1;;;0.6;;
77953;SDS011;67151;52.544;6.034;2023-04-24T01:08:54;1.6;;;0.7;;
77953;SDS011;67151;52.544;6.034;2023-04-24T01:09:09;1.4;;;0.7;;
77953;SDS011;67151;52.544;6.034;2023-04-24T01:09:24;1.1;;;0.7;;
77953;SDS011;67151;52.544;6.034;2023-04-24T01:09:40;1.1;;;0.7;;
77953;SDS011;67151;52.544;6.034;2023-04-24T01:09:54;1.4;;;0.7;;
77953;SDS011;67151;52.544;6.034;2023-04-24T01:10:10;1.7;;;0.7;;
77953;SDS011;67151;52.544;6.034;2023-04-24T01:10:24;1.4;;;0.7;;
77953;SDS011;67151;52.544;6.034;2023-04-24T01:10:39;1.3;;;0.7;;
77953;SDS011;67151;52.544;6.034;2023-04-24T01:10:54;1.3;;;0.7;;
77953;SDS011;67151;52.544;6.034;2023-04-24T01:11:09;1.2;;;0.7;;
77953;SDS011;67151;52.544;6.034;2023-04-24T01:11:24;1;;;0.6;;
77953;SDS011;67151;52.544;6.034;2023-04-24T01:11:39;1.2;;;0.7;;
77953;SDS011;67151;52.544;6.034;2023-04-24T01:11:54;1.7;;;0.8;;
77953;SDS011;67151;52.544;6.034;2023-04-24T01:12:09;1.8;;;0.7;;
77953;SDS011;67151;52.544;6.034;2023-04-24T01:12:24;1.2;;;0.6;;
77953;SDS011;67151;52.544;6.034;2023-04-24T01:12:39;0.8;;;0.5;;
77953;SDS011;67151;52.544;6.034;2023-04-24T01:12:54;1;;;0.5;;
77953;SDS011;67151;52.544;6.034;2023-04-24T01:13:09;1;;;0.6;;
77953;SDS011;67151;52.544;6.034;2023-04-24T01:13:24;1;;;0.6;;
77953;SDS011;67151;52.544;6.034;2023-04-24T01:13:39;1;;;0.6;;
77953;SDS011;67151;52.544;6.034;2023-04-24T01:13:54;1.3;;;0.6;;
77953;SDS011;67151;52.544;6.034;2023-04-24T01:14:09;1.3;;;0.6;;
77953;SDS011;67151;52.544;6.034;2023-04-24T01:14:24;1.6;;;0.7;;
77953;SDS011;67151;52.544;6.034;2023-04-24T01:14:39;1.8;;;0.7;;
77953;SDS011;67151;52.544;6.034;2023-04-24T01:14:54;1.7;;;0.7;;
77953;SDS011;67151;52.544;6.034;2023-04-24T01:15:09;2;;;0.8;;
77953;SDS011;67151;52.544;6.034;2023-04-24T01:15:24;2.2;;;0.7;;
77953;SDS011;67151;52.544;6.034;2023-04-24T01:15:39;1.8;;;0.7;;
77953;SDS011;67151;52.544;6.034;2023-04-24T01:15:54;1.6;;;0.7;;
77953;SDS011;67151;52.544;6.034;2023-04-24T01:16:09;1.5;;;0.8;;
77953;SDS011;67151;52.544;6.034;2023-04-24T01:16:24;1.1;;;0.8;;
77953;SDS011;67151;52.544;6.034;2023-04-24T01:16:39;1.1;;;0.7;;
77953;SDS011;67151;52.544;6.034;2023-04-24T01:16:54;1.3;;;0.6;;
77953;SDS011;67151;52.544;6.034;2023-04-24T01:17:09;1.4;;;0.6;;
77953;SDS011;67151;52.544;6.034;2023-04-24T01:17:24;1.3;;;0.6;;
77953;SDS011;67151;52.544;6.034;2023-04-24T01:17:39;1.2;;;0.6;;
77953;SDS011;67151;52.544;6.034;2023-04-24T01:17:54;1;;;0.7;;
77953;SDS011;67151;52.544;6.034;2023-04-24T01:18:09;1;;;0.7;;
77953;SDS011;67151;52.544;6.034;2023-04-24T01:18:24;1.5;;;0.7;;
77953;SDS011;67151;52.544;6.034;2023-04-24T01:18:39;1.5;;;0.6;;
77953;SDS011;67151;52.544;6.034;2023-04-24T01:18:54;1;;;0.7;;
77953;SDS011;67151;52.544;6.034;2023-04-24T01:19:10;1.3;;;0.8;;
77953;SDS011;67151;52.544;6.034;2023-04-24T01:19:24;1.5;;;0.8;;
77953;SDS011;67151;52.544;6.034;2023-04-24T01:19:39;1.1;;;0.7;;
77953;SDS011;67151;52.544;6.034;2023-04-24T01:19:54;1.1;;;0.6;;
77953;SDS011;67151;52.544;6.034;2023-04-24T01:20:09;1.1;;;0.6;;
77953;SDS011;67151;52.544;6.034;2023-04-24T01:20:24;1.2;;;0.7;;
77953;SDS011;67151;52.544;6.034;2023-04-24T01:20:40;1.3;;;0.7;;
77953;SDS011;67151;52.544;6.034;2023-04-24T01:20:56;1.6;;;0.8;;
77953;SDS011;67151;52.544;6.034;2023-04-24T01:21:09;1.4;;;0.7;;
77953;SDS011;67151;52.544;6.034;2023-04-24T01:21:25;1.1;;;0.6;;
77953;SDS011;67151;52.544;6.034;2023-04-24T01:21:39;1.1;;;0.6;;
77953;SDS011;67151;52.544;6.034;2023-04-24T01:21:54;0.9;;;0.6;;
77953;SDS011;67151;52.544;6.034;2023-04-24T01:22:10;0.7;;;0.6;;
77953;SDS011;67151;52.544;6.034;2023-04-24T01:22:24;1.1;;;0.6;;
77953;SDS011;67151;52.544;6.034;2023-04-24T01:22:39;1.4;;;0.7;;
77953;SDS011;67151;52.544;6.034;2023-04-24T01:22:54;1.4;;;0.7;;
77953;SDS011;67151;52.544;6.034;2023-04-24T01:23:09;1.5;;;0.6;;
77953;SDS011;67151;52.544;6.034;2023-04-24T01:23:24;1.4;;;0.6;;
77953;SDS011;67151;52.544;6.034;2023-04-24T01:23:39;1.7;;;0.7;;
77953;SDS011;67151;52.544;6.034;2023-04-24T01:23:54;1.5;;;0.6;;
77953;SDS011;67151;52.544;6.034;2023-04-24T01:24:09;1;;;0.6;;
77953;SDS011;67151;52.544;6.034;2023-04-24T01:24:24;0.9;;;0.6;;
77953;SDS011;67151;52.544;6.034;2023-04-24T01:24:39;0.8;;;0.6;;
77953;SDS011;67151;52.544;6.034;2023-04-24T01:24:54;1.4;;;0.6;;
77953;SDS011;67151;52.544;6.034;2023-04-24T01:25:09;1.6;;;0.7;;
77953;SDS011;67151;52.544;6.034;2023-04-24T01:25:24;1.5;;;0.6;;
77953;SDS011;67151;52.544;6.034;2023-04-24T01:25:39;2;;;0.5;;
77953;SDS011;67151;52.544;6.034;2023-04-24T01:25:54;1.6;;;0.6;;
77953;SDS011;67151;52.544;6.034;2023-04-24T01:26:09;1;;;0.7;;
77953;SDS011;67151;52.544;6.034;2023-04-24T01:26:24;1.5;;;0.8;;
77953;SDS011;67151;52.544;6.034;2023-04-24T01:26:39;1.3;;;0.6;;
77953;SDS011;67151;52.544;6.034;2023-04-24T01:26:54;0.9;;;0.5;;
77953;SDS011;67151;52.544;6.034;2023-04-24T01:27:09;0.9;;;0.5;;
77953;SDS011;67151;52.544;6.034;2023-04-24T01:27:24;0.8;;;0.5;;
77953;SDS011;67151;52.544;6.034;2023-04-24T01:27:39;0.6;;;0.5;;
77953;SDS011;67151;52.544;6.034;2023-04-24T01:27:54;1.1;;;0.6;;
77953;SDS011;67151;52.544;6.034;2023-04-24T01:28:09;1.2;;;0.6;;
77953;SDS011;67151;52.544;6.034;2023-04-24T01:28:24;1;;;0.6;;
77953;SDS011;67151;52.544;6.034;2023-04-24T01:28:39;1.7;;;0.6;;
77953;SDS011;67151;52.544;6.034;2023-04-24T01:28:54;1.6;;;0.5;;
77953;SDS011;67151;52.544;6.034;2023-04-24T01:29:09;1.1;;;0.5;;
77953;SDS011;67151;52.544;6.034;2023-04-24T01:29:24;1.2;;;0.6;;
77953;SDS011;67151;52.544;6.034;2023-04-24T01:29:39;0.9;;;0.6;;
77953;SDS011;67151;52.544;6.034;2023-04-24T01:29:54;1.1;;;0.6;;
77953;SDS011;67151;52.544;6.034;2023-04-24T01:30:10;1.4;;;0.7;;
77953;SDS011;67151;52.544;6.034;2023-04-24T01:30:24;1.3;;;0.6;;
77953;SDS011;67151;52.544;6.034;2023-04-24T01:30:39;1.2;;;0.6;;
77953;SDS011;67151;52.544;6.034;2023-04-24T01:30:54;1.2;;;0.7;;
77953;SDS011;67151;52.544;6.034;2023-04-24T01:31:09;1.2;;;0.7;;
77953;SDS011;67151;52.544;6.034;2023-04-24T01:31:24;1;;;0.6;;
77953;SDS011;67151;52.544;6.034;2023-04-24T01:31:39;0.7;;;0.5;;
77953;SDS011;67151;52.544;6.034;2023-04-24T01:31:54;1.3;;;0.5;;
77953;SDS011;67151;52.544;6.034;2023-04-24T01:32:09;1.6;;;0.6;;
77953;SDS011;67151;52.544;6.034;2023-04-24T01:32:24;1.3;;;0.6;;
77953;SDS011;67151;52.544;6.034;2023-04-24T01:32:40;1.1;;;0.6;;
77953;SDS011;67151;52.544;6.034;2023-04-24T01:32:54;1.1;;;0.5;;
77953;SDS011;67151;52.544;6.034;2023-04-24T01:33:09;1.4;;;0.6;;
77953;SDS011;67151;52.544;6.034;2023-04-24T01:33:24;1.2;;;0.6;;
77953;SDS011;67151;52.544;6.034;2023-04-24T01:33:40;0.9;;;0.5;;